^^
Station Historical Data
Daily Summary for September 1, 2017 Units:  English    Metric   Both
« Previous Day
Next Day »
Daily Weekly Monthly Yearly Custom
  High: Low: Average:
Temperature: 70.0 °F 51.6 °F 61 °F
Dew Point: 49.2 °F 39.0 °F 43.2 °F
Humidity: 71% 34% 54%
Wind Speed: 5.0mph 0.0mph 1.3mph
Wind Gust: 16.0mph - -
Wind- - WSW
Pressure: 30.20 in 30.00 in -
Precipitation: 0.00 in    
Historical Graphs
 
 
Tabular Data for September 1, 2017
Time Temperature Dew Point Pressure Wind Wind Speed Wind Gust Humidity Rainfall Rate (Hourly) Conditions
00:00 63.3 °F 49.2 °F 30.00 in North 1.0 mph 6.0 mph 60% 0.00 in CLR
00:30 61.5 °F 48.8 °F 30.01 in NW 2.0 mph 6.0 mph 63% 0.00 in CLR
00:45 60.7 °F 48.4 °F 30.02 in Calm   6.0 mph 64% 0.00 in CLR
01:00 59.8 °F 48.4 °F 30.02 in Calm   4.0 mph 66% 0.00 in CLR
02:15 56.9 °F 47.2 °F 30.03 in NNW 3.0 mph 9.0 mph 70% 0.00 in CLR
02:30 56.6 °F 46.2 °F 30.03 in North 5.0 mph 10.0 mph 68% 0.00 in CLR
02:45 56.1 °F 45.7 °F 30.03 in NNW 1.0 mph 9.0 mph 68% 0.00 in CLR
03:00 55.8 °F 44.6 °F 30.03 in NNW 2.0 mph 12.0 mph 66% 0.00 in CLR
03:15 55.3 °F 44.5 °F 30.03 in Calm   5.0 mph 67% 0.00 in CLR
03:30 54.8 °F 44.4 °F 30.04 in NNW 1.0 mph 5.0 mph 68% 0.00 in CLR
03:45 54.5 °F 44.2 °F 30.04 in NNW 1.0 mph 7.0 mph 68% 0.00 in CLR
04:00 54.5 °F 44.2 °F 30.05 in North 5.0 mph 7.0 mph 68% 0.00 in CLR
04:15 54.2 °F 43.5 °F 30.05 in NNW 2.0 mph 5.0 mph 67% 0.00 in CLR
04:30 53.8 °F 43.5 °F 30.05 in North 1.0 mph 4.0 mph 68% 0.00 in CLR
04:45 53.2 °F 43.3 °F 30.06 in Calm   4.0 mph 69% 0.00 in CLR
05:00 52.8 °F 43.3 °F 30.06 in Calm   3.0 mph 70% 0.00 in CLR
05:15 52.6 °F 43.1 °F 30.06 in Calm   3.0 mph 70% 0.00 in CLR
05:30 52.7 °F 43.2 °F 30.07 in Calm   6.0 mph 70% 0.00 in CLR
05:45 52.5 °F 43.4 °F 30.08 in Calm   6.0 mph 71% 0.00 in CLR
06:00 52.4 °F 42.9 °F 30.08 in Calm   6.0 mph 70% 0.00 in CLR
06:15 51.8 °F 42.3 °F 30.09 in North 1.0 mph 4.0 mph 70% 0.00 in CLR
06:30 51.6 °F 41.8 °F 30.09 in Calm   5.0 mph 69% 0.00 in CLR
06:45 51.6 °F 41.8 °F 30.10 in Calm   4.0 mph 69% 0.00 in CLR
07:00 52.1 °F 42.2 °F 30.10 in Calm   4.0 mph 69% 0.00 in CLR
07:15 52.2 °F 42.3 °F 30.10 in NNE 1.0 mph 5.0 mph 69% 0.00 in CLR
07:30 52.2 °F 42.3 °F 30.11 in Calm   4.0 mph 69% 0.00 in CLR
07:45 52.6 °F 42.7 °F 30.11 in Calm   6.0 mph 69% 0.00 in CLR
08:00 53.1 °F 42.4 °F 30.11 in North 2.0 mph 7.0 mph 67% 0.00 in CLR
08:15 53.6 °F 42.9 °F 30.11 in NNE 2.0 mph 6.0 mph 67% 0.00 in CLR
08:30 54.1 °F 42.6 °F 30.11 in NNW 1.0 mph 7.0 mph 65% 0.00 in CLR
08:45 55.4 °F 43.0 °F 30.11 in NE 1.0 mph 13.0 mph 63% 0.00 in CLR
09:00 56.5 °F 42.7 °F 30.12 in North 3.0 mph 10.0 mph 60% 0.00 in CLR
09:15 57.5 °F 43.7 °F 30.12 in Calm   7.0 mph 60% 0.00 in CLR
09:30 57.8 °F 42.7 °F 30.12 in NNW 1.0 mph 10.0 mph 57% 0.00 in CLR
09:45 58.3 °F 42.2 °F 30.12 in Calm   10.0 mph 55% 0.00 in CLR
10:00 59.0 °F 42.8 °F 30.12 in NNE 2.0 mph 7.0 mph 55% 0.00 in CLR
10:15 59.2 °F 41.6 °F 30.12 in North 2.0 mph 13.0 mph 52% 0.00 in CLR
10:30 59.6 °F 41.9 °F 30.13 in NW 1.0 mph 12.0 mph 52% 0.00 in CLR
10:45 60.3 °F 41.6 °F 30.13 in NW 3.0 mph 12.0 mph 50% 0.00 in CLR
11:00 61.3 °F 42.0 °F 30.13 in NNE 2.0 mph 7.0 mph 49% 0.00 in CLR
11:15 61.3 °F 40.9 °F 30.14 in NNW 3.0 mph 12.0 mph 47% 0.00 in CLR
11:30 62.0 °F 41.0 °F 30.13 in NNW 5.0 mph 9.0 mph 46% 0.00 in CLR
11:45 62.7 °F 40.5 °F 30.13 in NNW 2.0 mph 10.0 mph 44% 0.00 in CLR
12:00 63.1 °F 39.0 °F 30.13 in NNW 2.0 mph 13.0 mph 41% 0.00 in CLR
12:15 63.5 °F 39.3 °F 30.13 in North 2.0 mph 12.0 mph 41% 0.00 in CLR
12:30 64.7 °F 40.4 °F 30.12 in WNW 3.0 mph 12.0 mph 41% 0.00 in CLR
12:45 64.6 °F 39.1 °F 30.12 in WNW 2.0 mph 16.0 mph 39% 0.00 in CLR
13:00 65.0 °F 39.5 °F 30.12 in NNW 5.0 mph 10.0 mph 39% 0.00 in CLR
13:15 65.6 °F 40.0 °F 30.11 in NW 1.0 mph 8.0 mph 39% 0.00 in CLR
13:30 66.2 °F 42.4 °F 30.11 in Calm   8.0 mph 42% 0.00 in CLR
13:45 67.2 °F 42.1 °F 30.11 in Calm   8.0 mph 40% 0.00 in CLR
14:00 66.8 °F 41.7 °F 30.10 in WNW 2.0 mph 7.0 mph 40% 0.00 in CLR
14:15 67.2 °F 40.0 °F 30.10 in NW 1.0 mph 7.0 mph 37% 0.00 in CLR
14:30 67.0 °F 39.9 °F 30.09 in NNW 5.0 mph 9.0 mph 37% 0.00 in CLR
14:45 68.0 °F 40.7 °F 30.10 in Calm   9.0 mph 37% 0.00 in CLR
15:00 68.9 °F 41.6 °F 30.09 in NNW 2.0 mph 9.0 mph 37% 0.00 in CLR
15:15 68.7 °F 39.9 °F 30.10 in North 3.0 mph 8.0 mph 35% 0.00 in CLR
15:30 69.3 °F 39.7 °F 30.09 in WNW 3.0 mph 10.0 mph 34% 0.00 in CLR
15:45 69.0 °F 40.9 °F 30.09 in NW 2.0 mph 9.0 mph 36% 0.00 in CLR
16:00 68.9 °F 40.1 °F 30.09 in NNW 5.0 mph 12.0 mph 35% 0.00 in CLR
16:15 69.7 °F 40.0 °F 30.09 in NNW 5.0 mph 7.0 mph 34% 0.00 in CLR
16:30 69.9 °F 41.7 °F 30.09 in NNW 3.0 mph 9.0 mph 36% 0.00 in CLR
16:45 69.7 °F 42.2 °F 30.09 in NE 2.0 mph 9.0 mph 37% 0.00 in CLR
17:00 69.8 °F 42.3 °F 30.09 in North 2.0 mph 7.0 mph 37% 0.00 in CLR
17:15 69.6 °F 42.9 °F 30.08 in NW 1.0 mph 7.0 mph 38% 0.00 in CLR
17:30 69.3 °F 43.9 °F 30.09 in NNE 2.0 mph 8.0 mph 40% 0.00 in CLR
17:45 70.0 °F 45.2 °F 30.09 in Calm   6.0 mph 41% 0.00 in CLR
18:00 69.0 °F 43.7 °F 30.09 in NNE 1.0 mph 6.0 mph 40% 0.00 in CLR
18:15 68.8 °F 43.5 °F 30.10 in NNW 2.0 mph 6.0 mph 40% 0.00 in CLR
18:30 68.4 °F 44.4 °F 30.10 in Calm   9.0 mph 42% 0.00 in CLR
18:45 67.6 °F 44.3 °F 30.10 in East 1.0 mph 6.0 mph 43% 0.00 in CLR
19:00 66.4 °F 44.4 °F 30.10 in NE 1.0 mph 5.0 mph 45% 0.00 in CLR
19:15 65.8 °F 44.4 °F 30.11 in Calm   5.0 mph 46% 0.00 in CLR
19:30 65.4 °F 44.1 °F 30.12 in Calm   4.0 mph 46% 0.00 in CLR
19:45 65.1 °F 43.8 °F 30.13 in Calm   6.0 mph 46% 0.00 in CLR
20:15 64.4 °F 43.7 °F 30.14 in Calm   2.0 mph 47% 0.00 in CLR
20:30 64.3 °F 43.6 °F 30.15 in Calm   3.0 mph 47% 0.00 in CLR
20:45 64.0 °F 44.4 °F 30.15 in Calm   3.0 mph 49% 0.00 in CLR
21:00 63.3 °F 45.4 °F 30.16 in Calm   1.0 mph 52% 0.00 in CLR
21:15 63.0 °F 46.1 °F 30.15 in Calm   1.0 mph 54% 0.00 in CLR
21:30 63.0 °F 46.1 °F 30.16 in Calm   1.0 mph 54% 0.00 in CLR
21:45 62.9 °F 46.5 °F 30.17 in Calm   4.0 mph 55% 0.00 in CLR
22:00 62.4 °F 47.0 °F 30.17 in Calm   1.0 mph 57% 0.00 in CLR
22:15 61.7 °F 47.3 °F 30.18 in Calm   3.0 mph 59% 0.00 in CLR
22:30 60.6 °F 46.6 °F 30.19 in Calm   4.0 mph 60% 0.00 in CLR
22:45 58.6 °F 45.2 °F 30.19 in Calm   1.0 mph 61% 0.00 in CLR
23:00 57.4 °F 45.4 °F 30.20 in Calm   1.0 mph 64% 0.00 in CLR
23:30 56.1 °F 44.9 °F 30.20 in Calm     66% 0.00 in CLR
23:45 55.8 °F 44.6 °F 30.19 in Calm   1.0 mph 66% 0.00 in CLR
TarryTown NY Weather
Compliments of Weather Underground - 1.5 mb